sensor_id;sensor_type;location;lat;lon;timestamp;pressure;altitude;pressure_sealevel;temperature;humidity
24752;BME280;27246;52.376;4.628;2023-04-10T00:04:12;101910.31;;;10.43;58.75
24752;BME280;27246;52.376;4.628;2023-04-10T00:09:16;101889.94;;;10.36;58.89
24752;BME280;27246;52.376;4.628;2023-04-10T00:14:18;101897.50;;;10.34;59.37
24752;BME280;27246;52.376;4.628;2023-04-10T00:19:23;101899.22;;;10.35;59.61
24752;BME280;27246;52.376;4.628;2023-04-10T00:24:25;101889.63;;;10.39;59.11
24752;BME280;27246;52.376;4.628;2023-04-10T00:29:27;101879.63;;;10.38;59.74
24752;BME280;27246;52.376;4.628;2023-04-10T00:34:31;101875.41;;;10.26;59.54
24752;BME280;27246;52.376;4.628;2023-04-10T00:39:33;101869.88;;;10.26;60.32
24752;BME280;27246;52.376;4.628;2023-04-10T00:44:34;101878.78;;;10.19;60.52
24752;BME280;27246;52.376;4.628;2023-04-10T00:49:38;101864.22;;;10.09;61.03
24752;BME280;27246;52.376;4.628;2023-04-10T00:54:40;101854.47;;;9.97;61.49
24752;BME280;27246;52.376;4.628;2023-04-10T00:59:42;101850.84;;;9.96;61.89
24752;BME280;27246;52.376;4.628;2023-04-10T01:04:45;101827.38;;;9.92;62.39
24752;BME280;27246;52.376;4.628;2023-04-10T01:09:53;101829.28;;;9.92;62.48
24752;BME280;27246;52.376;4.628;2023-04-10T01:15:12;101820.31;;;9.90;62.66
24752;BME280;27246;52.376;4.628;2023-04-10T01:20:19;101808.31;;;9.91;62.54
24752;BME280;27246;52.376;4.628;2023-04-10T01:25:53;101815.16;;;9.87;63.03
24752;BME280;27246;52.376;4.628;2023-04-10T01:30:58;101805.69;;;9.71;63.41
24752;BME280;27246;52.376;4.628;2023-04-10T01:36:03;101799.41;;;9.79;63.52
24752;BME280;27246;52.376;4.628;2023-04-10T01:41:07;101786.34;;;9.63;63.98
24752;BME280;27246;52.376;4.628;2023-04-10T01:46:11;101793.50;;;9.74;63.83
24752;BME280;27246;52.376;4.628;2023-04-10T01:51:13;101787.75;;;9.67;64.09
24752;BME280;27246;52.376;4.628;2023-04-10T01:56:16;101783.69;;;9.71;64.54
24752;BME280;27246;52.376;4.628;2023-04-10T02:01:20;101766.06;;;9.64;64.38
24752;BME280;27246;52.376;4.628;2023-04-10T02:16:54;101775.16;;;9.47;65.54
24752;BME280;27246;52.376;4.628;2023-04-10T02:21:57;101774.38;;;9.36;65.68
24752;BME280;27246;52.376;4.628;2023-04-10T02:27:00;101772.25;;;9.30;66.33
24752;BME280;27246;52.376;4.628;2023-04-10T02:32:02;101767.69;;;9.39;66.51
24752;BME280;27246;52.376;4.628;2023-04-10T02:37:04;101769.75;;;9.27;67.33
24752;BME280;27246;52.376;4.628;2023-04-10T02:42:08;101770.97;;;9.15;68.02
24752;BME280;27246;52.376;4.628;2023-04-10T02:47:11;101773.00;;;9.13;68.39
24752;BME280;27246;52.376;4.628;2023-04-10T02:52:17;101779.88;;;8.99;69.00
24752;BME280;27246;52.376;4.628;2023-04-10T02:57:19;101773.19;;;9.01;69.88
24752;BME280;27246;52.376;4.628;2023-04-10T03:02:21;101762.81;;;8.95;69.94
24752;BME280;27246;52.376;4.628;2023-04-10T03:07:24;101767.06;;;8.90;70.87
24752;BME280;27246;52.376;4.628;2023-04-10T03:12:26;101759.38;;;8.84;71.34
24752;BME280;27246;52.376;4.628;2023-04-10T03:17:29;101752.47;;;8.79;72.03
24752;BME280;27246;52.376;4.628;2023-04-10T03:22:31;101753.19;;;8.81;71.99
24752;BME280;27246;52.376;4.628;2023-04-10T03:27:33;101736.16;;;8.78;72.69
24752;BME280;27246;52.376;4.628;2023-04-10T03:32:36;101729.84;;;8.68;72.83
24752;BME280;27246;52.376;4.628;2023-04-10T03:37:39;101726.06;;;8.69;73.04
24752;BME280;27246;52.376;4.628;2023-04-10T03:42:42;101725.47;;;8.75;73.60
24752;BME280;27246;52.376;4.628;2023-04-10T03:47:44;101710.03;;;8.64;73.91
24752;BME280;27246;52.376;4.628;2023-04-10T03:52:50;101707.44;;;8.63;73.96
24752;BME280;27246;52.376;4.628;2023-04-10T03:57:54;101703.97;;;8.60;74.43
24752;BME280;27246;52.376;4.628;2023-04-10T04:02:57;101707.44;;;8.63;74.20
24752;BME280;27246;52.376;4.628;2023-04-10T04:08:20;101696.16;;;8.66;73.78
24752;BME280;27246;52.376;4.628;2023-04-10T04:13:40;101684.75;;;8.60;74.29
24752;BME280;27246;52.376;4.628;2023-04-10T04:18:46;101683.03;;;8.59;74.12
24752;BME280;27246;52.376;4.628;2023-04-10T04:24:02;101673.78;;;8.60;73.58
24752;BME280;27246;52.376;4.628;2023-04-10T04:29:24;101670.28;;;8.68;73.07
24752;BME280;27246;52.376;4.628;2023-04-10T04:34:43;101681.91;;;8.52;73.23
24752;BME280;27246;52.376;4.628;2023-04-10T04:40:04;101676.06;;;8.65;72.71
24752;BME280;27246;52.376;4.628;2023-04-10T04:45:19;101671.03;;;8.60;72.57
24752;BME280;27246;52.376;4.628;2023-04-10T04:50:41;101669.69;;;8.65;72.28
24752;BME280;27246;52.376;4.628;2023-04-10T04:56:11;101658.31;;;8.59;72.45
24752;BME280;27246;52.376;4.628;2023-04-10T05:01:24;101652.38;;;8.64;72.49
24752;BME280;27246;52.376;4.628;2023-04-10T05:06:40;101658.44;;;8.68;72.43
24752;BME280;27246;52.376;4.628;2023-04-10T05:11:50;101645.41;;;8.70;72.04
24752;BME280;27246;52.376;4.628;2023-04-10T05:17:14;101649.38;;;8.57;72.23
24752;BME280;27246;52.376;4.628;2023-04-10T05:22:24;101643.47;;;8.52;72.24
24752;BME280;27246;52.376;4.628;2023-04-10T05:27:44;101648.34;;;8.58;72.59
24752;BME280;27246;52.376;4.628;2023-04-10T05:33:02;101648.94;;;8.52;71.92
24752;BME280;27246;52.376;4.628;2023-04-10T05:38:30;101652.97;;;8.58;71.83
24752;BME280;27246;52.376;4.628;2023-04-10T05:43:49;101646.03;;;8.64;71.13
24752;BME280;27246;52.376;4.628;2023-04-10T05:49:08;101637.34;;;8.58;71.39
24752;BME280;27246;52.376;4.628;2023-04-10T05:54:36;101628.81;;;8.61;70.99
24752;BME280;27246;52.376;4.628;2023-04-10T05:59:56;101639.97;;;8.60;70.86
24752;BME280;27246;52.376;4.628;2023-04-10T06:05:24;101638.16;;;8.69;70.48
24752;BME280;27246;52.376;4.628;2023-04-10T06:10:32;101623.78;;;8.57;70.52
24752;BME280;27246;52.376;4.628;2023-04-10T06:15:34;101621.34;;;8.54;70.31
24752;BME280;27246;52.376;4.628;2023-04-10T06:20:36;101604.31;;;8.50;70.94
24752;BME280;27246;52.376;4.628;2023-04-10T06:25:38;101594.75;;;8.54;69.88
24752;BME280;27246;52.376;4.628;2023-04-10T06:30:40;101580.09;;;8.64;69.26
24752;BME280;27246;52.376;4.628;2023-04-10T06:35:41;101581.34;;;8.69;68.72
24752;BME280;27246;52.376;4.628;2023-04-10T06:40:43;101567.88;;;8.76;68.05
24752;BME280;27246;52.376;4.628;2023-04-10T06:45:45;101555.94;;;8.85;67.31
24752;BME280;27246;52.376;4.628;2023-04-10T06:50:47;101560.00;;;8.81;67.06
24752;BME280;27246;52.376;4.628;2023-04-10T06:55:49;101553.75;;;8.89;67.46
24752;BME280;27246;52.376;4.628;2023-04-10T07:00:50;101551.72;;;8.91;66.21
24752;BME280;27246;52.376;4.628;2023-04-10T07:05:52;101535.16;;;9.00;66.59
24752;BME280;27246;52.376;4.628;2023-04-10T07:10:54;101538.03;;;8.99;66.51
24752;BME280;27246;52.376;4.628;2023-04-10T07:15:59;101533.25;;;9.01;66.28
24752;BME280;27246;52.376;4.628;2023-04-10T07:21:08;101525.34;;;8.98;66.72
24752;BME280;27246;52.376;4.628;2023-04-10T07:26:10;101531.63;;;9.08;65.74
24752;BME280;27246;52.376;4.628;2023-04-10T07:31:12;101515.56;;;9.04;66.11
24752;BME280;27246;52.376;4.628;2023-04-10T07:36:14;101501.03;;;9.11;65.87
24752;BME280;27246;52.376;4.628;2023-04-10T07:41:16;101491.59;;;9.14;65.69
24752;BME280;27246;52.376;4.628;2023-04-10T07:46:18;101498.38;;;9.19;65.50
24752;BME280;27246;52.376;4.628;2023-04-10T07:51:20;101494.06;;;9.17;65.49
24752;BME280;27246;52.376;4.628;2023-04-10T07:56:22;101477.50;;;9.09;66.42
24752;BME280;27246;52.376;4.628;2023-04-10T08:01:24;101481.88;;;9.19;65.76
24752;BME280;27246;52.376;4.628;2023-04-10T08:06:26;101474.88;;;9.25;66.19
24752;BME280;27246;52.376;4.628;2023-04-10T08:11:31;101460.13;;;9.26;65.72
24752;BME280;27246;52.376;4.628;2023-04-10T08:16:34;101455.91;;;9.40;65.92
24752;BME280;27246;52.376;4.628;2023-04-10T08:21:36;101448.50;;;9.32;66.08
24752;BME280;27246;52.376;4.628;2023-04-10T08:26:38;101433.06;;;9.39;65.89
24752;BME280;27246;52.376;4.628;2023-04-10T08:31:40;101429.63;;;9.37;65.90
24752;BME280;27246;52.376;4.628;2023-04-10T08:36:41;101424.88;;;9.48;66.02
24752;BME280;27246;52.376;4.628;2023-04-10T08:41:43;101424.75;;;9.57;65.54
24752;BME280;27246;52.376;4.628;2023-04-10T08:46:45;101410.81;;;9.51;65.81
24752;BME280;27246;52.376;4.628;2023-04-10T08:51:55;101400.06;;;9.74;65.31
24752;BME280;27246;52.376;4.628;2023-04-10T08:56:58;101393.03;;;9.79;65.51
24752;BME280;27246;52.376;4.628;2023-04-10T09:02:01;101386.00;;;9.85;64.94
24752;BME280;27246;52.376;4.628;2023-04-10T09:07:03;101378.47;;;9.95;64.69
24752;BME280;27246;52.376;4.628;2023-04-10T09:12:05;101373.84;;;10.12;64.43
24752;BME280;27246;52.376;4.628;2023-04-10T09:17:17;101369.41;;;10.28;64.01
24752;BME280;27246;52.376;4.628;2023-04-10T09:22:30;101370.66;;;10.41;63.54
24752;BME280;27246;52.376;4.628;2023-04-10T09:27:35;101351.16;;;10.27;64.32
24752;BME280;27246;52.376;4.628;2023-04-10T09:32:43;101346.34;;;10.29;64.04
24752;BME280;27246;52.376;4.628;2023-04-10T09:37:47;101334.31;;;10.38;63.61
24752;BME280;27246;52.376;4.628;2023-04-10T09:42:49;101326.06;;;10.46;63.17
24752;BME280;27246;52.376;4.628;2023-04-10T09:48:05;101313.66;;;10.58;63.41
24752;BME280;27246;52.376;4.628;2023-04-10T09:53:09;101297.78;;;10.69;63.11
24752;BME280;27246;52.376;4.628;2023-04-10T09:58:12;101283.50;;;10.65;63.09
24752;BME280;27246;52.376;4.628;2023-04-10T10:03:16;101282.13;;;10.61;62.73
24752;BME280;27246;52.376;4.628;2023-04-10T10:08:18;101290.22;;;10.71;63.19
24752;BME280;27246;52.376;4.628;2023-04-10T10:13:34;101281.41;;;10.75;63.46
24752;BME280;27246;52.376;4.628;2023-04-10T10:24:18;101270.06;;;11.34;62.28
24752;BME280;27246;52.376;4.628;2023-04-10T10:29:22;101263.88;;;11.32;61.09
24752;BME280;27246;52.376;4.628;2023-04-10T10:34:25;101265.75;;;11.32;61.45
24752;BME280;27246;52.376;4.628;2023-04-10T10:50:02;101206.59;;;11.66;62.65
24752;BME280;27246;52.376;4.628;2023-04-10T11:05:53;101186.94;;;12.07;60.74
24752;BME280;27246;52.376;4.628;2023-04-10T11:16:08;101151.75;;;12.24;61.60
24752;BME280;27246;52.376;4.628;2023-04-10T11:21:17;101133.28;;;12.39;61.76
24752;BME280;27246;52.376;4.628;2023-04-10T11:31:36;101112.06;;;12.54;60.91
24752;BME280;27246;52.376;4.628;2023-04-10T11:36:42;101104.16;;;12.51;60.55
24752;BME280;27246;52.376;4.628;2023-04-10T11:41:45;101100.06;;;12.47;61.97
24752;BME280;27246;52.376;4.628;2023-04-10T11:46:47;101080.81;;;12.39;61.49
24752;BME280;27246;52.376;4.628;2023-04-10T11:51:51;101068.91;;;12.38;62.53
24752;BME280;27246;52.376;4.628;2023-04-10T12:02:05;101051.72;;;12.28;63.15
24752;BME280;27246;52.376;4.628;2023-04-10T12:07:08;101038.78;;;12.29;63.37
24752;BME280;27246;52.376;4.628;2023-04-10T12:12:10;101024.22;;;12.35;63.45
24752;BME280;27246;52.376;4.628;2023-04-10T12:17:13;101033.25;;;12.29;62.87
24752;BME280;27246;52.376;4.628;2023-04-10T12:22:14;101021.84;;;12.32;63.61
24752;BME280;27246;52.376;4.628;2023-04-10T12:32:23;101021.09;;;12.38;64.58
24752;BME280;27246;52.376;4.628;2023-04-10T12:37:51;101023.00;;;12.37;65.51
24752;BME280;27246;52.376;4.628;2023-04-10T12:42:54;101014.91;;;12.36;67.22
24752;BME280;27246;52.376;4.628;2023-04-10T12:47:56;101003.84;;;12.36;70.26
24752;BME280;27246;52.376;4.628;2023-04-10T12:53:05;100999.94;;;12.15;70.79
24752;BME280;27246;52.376;4.628;2023-04-10T12:58:18;100982.03;;;11.96;74.86
24752;BME280;27246;52.376;4.628;2023-04-10T13:03:28;100958.63;;;11.92;78.86
24752;BME280;27246;52.376;4.628;2023-04-10T13:08:30;100944.53;;;11.72;80.56
24752;BME280;27246;52.376;4.628;2023-04-10T13:13:33;100940.53;;;11.60;82.82
24752;BME280;27246;52.376;4.628;2023-04-10T13:18:34;100920.84;;;11.63;85.07
24752;BME280;27246;52.376;4.628;2023-04-10T13:23:36;100924.06;;;11.52;86.10
24752;BME280;27246;52.376;4.628;2023-04-10T13:28:38;100913.44;;;11.49;88.49
24752;BME280;27246;52.376;4.628;2023-04-10T13:33:39;100917.22;;;11.48;89.26
24752;BME280;27246;52.376;4.628;2023-04-10T13:38:41;100898.75;;;11.33;90.89
24752;BME280;27246;52.376;4.628;2023-04-10T13:43:43;100899.25;;;11.22;93.04
24752;BME280;27246;52.376;4.628;2023-04-10T13:48:44;100874.13;;;11.17;96.70
24752;BME280;27246;52.376;4.628;2023-04-10T13:53:46;100873.22;;;11.01;97.94
24752;BME280;27246;52.376;4.628;2023-04-10T13:58:48;100874.84;;;10.96;99.18
24752;BME280;27246;52.376;4.628;2023-04-10T14:03:49;100859.13;;;10.81;100.00
24752;BME280;27246;52.376;4.628;2023-04-10T14:08:51;100848.63;;;10.77;100.00
24752;BME280;27246;52.376;4.628;2023-04-10T14:13:53;100841.41;;;10.76;100.00
24752;BME280;27246;52.376;4.628;2023-04-10T14:18:55;100823.72;;;10.70;100.00
24752;BME280;27246;52.376;4.628;2023-04-10T14:23:57;100823.50;;;10.57;100.00
24752;BME280;27246;52.376;4.628;2023-04-10T14:29:00;100804.47;;;10.47;100.00
24752;BME280;27246;52.376;4.628;2023-04-10T14:34:02;100801.41;;;10.42;100.00
24752;BME280;27246;52.376;4.628;2023-04-10T14:39:04;100788.41;;;10.36;100.00
24752;BME280;27246;52.376;4.628;2023-04-10T14:44:05;100784.47;;;10.30;100.00
24752;BME280;27246;52.376;4.628;2023-04-10T14:49:07;100798.13;;;10.24;100.00
24752;BME280;27246;52.376;4.628;2023-04-10T14:54:11;100786.72;;;10.27;100.00
24752;BME280;27246;52.376;4.628;2023-04-10T14:59:14;100792.25;;;10.27;100.00
24752;BME280;27246;52.376;4.628;2023-04-10T15:04:16;100788.81;;;10.25;100.00
24752;BME280;27246;52.376;4.628;2023-04-10T15:09:18;100803.63;;;10.24;100.00
24752;BME280;27246;52.376;4.628;2023-04-10T15:14:22;100776.97;;;10.24;100.00
24752;BME280;27246;52.376;4.628;2023-04-10T15:19:24;100785.53;;;10.06;100.00
24752;BME280;27246;52.376;4.628;2023-04-10T15:24:25;100777.53;;;10.19;100.00
24752;BME280;27246;52.376;4.628;2023-04-10T15:29:35;100774.78;;;10.19;100.00
24752;BME280;27246;52.376;4.628;2023-04-10T15:34:38;100762.69;;;10.20;100.00
24752;BME280;27246;52.376;4.628;2023-04-10T15:39:39;100755.31;;;10.21;100.00
24752;BME280;27246;52.376;4.628;2023-04-10T15:44:44;100749.25;;;10.26;100.00
24752;BME280;27246;52.376;4.628;2023-04-10T15:49:48;100743.56;;;10.27;100.00
24752;BME280;27246;52.376;4.628;2023-04-10T15:54:50;100734.34;;;10.35;100.00
24752;BME280;27246;52.376;4.628;2023-04-10T15:59:53;100713.38;;;10.34;100.00
24752;BME280;27246;52.376;4.628;2023-04-10T16:04:56;100703.78;;;10.30;100.00
24752;BME280;27246;52.376;4.628;2023-04-10T16:09:58;100691.84;;;10.37;100.00
24752;BME280;27246;52.376;4.628;2023-04-10T16:15:00;100691.19;;;10.35;100.00
24752;BME280;27246;52.376;4.628;2023-04-10T16:20:06;100689.38;;;10.43;100.00
24752;BME280;27246;52.376;4.628;2023-04-10T16:25:08;100704.06;;;10.35;100.00
24752;BME280;27246;52.376;4.628;2023-04-10T16:30:10;100700.56;;;10.41;100.00
24752;BME280;27246;52.376;4.628;2023-04-10T16:35:12;100699.53;;;10.42;100.00
24752;BME280;27246;52.376;4.628;2023-04-10T16:40:14;100694.97;;;10.34;100.00
24752;BME280;27246;52.376;4.628;2023-04-10T16:45:16;100703.72;;;10.38;100.00
24752;BME280;27246;52.376;4.628;2023-04-10T16:50:18;100701.91;;;10.45;100.00
24752;BME280;27246;52.376;4.628;2023-04-10T16:55:19;100692.59;;;10.46;100.00
24752;BME280;27246;52.376;4.628;2023-04-10T17:00:21;100680.06;;;10.44;100.00
24752;BME280;27246;52.376;4.628;2023-04-10T17:05:23;100674.19;;;10.47;100.00
24752;BME280;27246;52.376;4.628;2023-04-10T17:10:24;100677.19;;;10.37;100.00
24752;BME280;27246;52.376;4.628;2023-04-10T17:15:28;100636.19;;;10.42;100.00
24752;BME280;27246;52.376;4.628;2023-04-10T17:20:34;100634.78;;;10.46;100.00
24752;BME280;27246;52.376;4.628;2023-04-10T17:25:42;100652.44;;;10.52;100.00
24752;BME280;27246;52.376;4.628;2023-04-10T17:30:43;100634.31;;;10.57;100.00
24752;BME280;27246;52.376;4.628;2023-04-10T17:35:45;100624.50;;;10.55;100.00
24752;BME280;27246;52.376;4.628;2023-04-10T17:40:47;100620.25;;;10.52;100.00
24752;BME280;27246;52.376;4.628;2023-04-10T17:45:48;100604.97;;;10.50;100.00
24752;BME280;27246;52.376;4.628;2023-04-10T17:50:50;100604.13;;;10.49;100.00
24752;BME280;27246;52.376;4.628;2023-04-10T17:55:52;100617.38;;;10.60;100.00
24752;BME280;27246;52.376;4.628;2023-04-10T18:00:54;100629.84;;;10.56;100.00
24752;BME280;27246;52.376;4.628;2023-04-10T18:05:55;100621.31;;;10.51;100.00
24752;BME280;27246;52.376;4.628;2023-04-10T18:10:57;100611.78;;;10.54;100.00
24752;BME280;27246;52.376;4.628;2023-04-10T18:15:59;100616.47;;;10.53;100.00
24752;BME280;27246;52.376;4.628;2023-04-10T18:21:03;100611.78;;;10.54;100.00
24752;BME280;27246;52.376;4.628;2023-04-10T18:26:05;100616.66;;;10.52;100.00
24752;BME280;27246;52.376;4.628;2023-04-10T18:31:07;100617.19;;;10.47;100.00
24752;BME280;27246;52.376;4.628;2023-04-10T18:36:09;100616.91;;;10.42;100.00
24752;BME280;27246;52.376;4.628;2023-04-10T18:41:11;100625.66;;;10.46;100.00
24752;BME280;27246;52.376;4.628;2023-04-10T18:46:13;100618.16;;;10.39;100.00
24752;BME280;27246;52.376;4.628;2023-04-10T18:51:15;100614.84;;;10.29;100.00
24752;BME280;27246;52.376;4.628;2023-04-10T18:56:16;100606.56;;;10.29;99.55
24752;BME280;27246;52.376;4.628;2023-04-10T19:01:18;100598.59;;;10.19;99.75
24752;BME280;27246;52.376;4.628;2023-04-10T19:06:20;100601.84;;;10.23;99.23
24752;BME280;27246;52.376;4.628;2023-04-10T19:11:24;100600.56;;;10.11;99.49
24752;BME280;27246;52.376;4.628;2023-04-10T19:16:26;100603.53;;;10.09;100.00
24752;BME280;27246;52.376;4.628;2023-04-10T19:21:28;100600.78;;;10.09;99.67
24752;BME280;27246;52.376;4.628;2023-04-10T19:26:30;100598.00;;;10.09;99.47
24752;BME280;27246;52.376;4.628;2023-04-10T19:31:31;100603.59;;;10.01;99.42
24752;BME280;27246;52.376;4.628;2023-04-10T19:36:34;100609.78;;;10.03;99.16
24752;BME280;27246;52.376;4.628;2023-04-10T19:41:36;100622.88;;;10.01;99.00
24752;BME280;27246;52.376;4.628;2023-04-10T19:46:42;100622.88;;;10.01;99.36
24752;BME280;27246;52.376;4.628;2023-04-10T19:51:44;100616.22;;;9.95;99.36
24752;BME280;27246;52.376;4.628;2023-04-10T19:56:46;100622.94;;;9.93;99.76
24752;BME280;27246;52.376;4.628;2023-04-10T20:01:47;100628.31;;;9.86;99.43
24752;BME280;27246;52.376;4.628;2023-04-10T20:06:49;100622.53;;;9.81;99.56
24752;BME280;27246;52.376;4.628;2023-04-10T20:11:51;100612.03;;;9.85;99.28
24752;BME280;27246;52.376;4.628;2023-04-10T20:16:53;100614.47;;;9.94;98.38
24752;BME280;27246;52.376;4.628;2023-04-10T20:21:55;100610.53;;;9.97;98.02
24752;BME280;27246;52.376;4.628;2023-04-10T20:26:57;100588.50;;;9.97;98.11
24752;BME280;27246;52.376;4.628;2023-04-10T20:31:58;100592.94;;;9.98;98.62
24752;BME280;27246;52.376;4.628;2023-04-10T20:37:00;100581.28;;;9.96;98.85
24752;BME280;27246;52.376;4.628;2023-04-10T20:42:02;100569.91;;;9.99;98.48
24752;BME280;27246;52.376;4.628;2023-04-10T20:47:05;100554.72;;;10.03;98.47
24752;BME280;27246;52.376;4.628;2023-04-10T20:52:06;100541.44;;;9.92;99.06
24752;BME280;27246;52.376;4.628;2023-04-10T20:57:08;100561.09;;;10.04;98.89
24752;BME280;27246;52.376;4.628;2023-04-10T21:02:10;100575.03;;;10.02;98.16
24752;BME280;27246;52.376;4.628;2023-04-10T21:07:13;100576.16;;;9.93;97.15
24752;BME280;27246;52.376;4.628;2023-04-10T21:12:15;100570.66;;;9.93;99.72
24752;BME280;27246;52.376;4.628;2023-04-10T21:17:17;100576.44;;;9.98;100.00
24752;BME280;27246;52.376;4.628;2023-04-10T21:22:19;100561.97;;;9.66;100.00
24752;BME280;27246;52.376;4.628;2023-04-10T21:27:21;100558.19;;;9.67;100.00
24752;BME280;27246;52.376;4.628;2023-04-10T21:32:23;100532.44;;;9.45;100.00
24752;BME280;27246;52.376;4.628;2023-04-10T21:37:25;100547.75;;;9.39;100.00
24752;BME280;27246;52.376;4.628;2023-04-10T21:42:26;100543.94;;;9.17;100.00
24752;BME280;27246;52.376;4.628;2023-04-10T21:47:28;100556.91;;;9.09;100.00
24752;BME280;27246;52.376;4.628;2023-04-10T21:52:30;100570.38;;;8.95;100.00
24752;BME280;27246;52.376;4.628;2023-04-10T21:57:31;100575.19;;;8.93;99.89
24752;BME280;27246;52.376;4.628;2023-04-10T22:02:33;100576.97;;;8.86;92.18
24752;BME280;27246;52.376;4.628;2023-04-10T22:07:35;100554.03;;;9.02;85.84
24752;BME280;27246;52.376;4.628;2023-04-10T22:12:36;100556.63;;;8.95;81.66
24752;BME280;27246;52.376;4.628;2023-04-10T22:17:38;100566.78;;;8.95;81.99
24752;BME280;27246;52.376;4.628;2023-04-10T22:22:40;100571.78;;;8.91;82.73
24752;BME280;27246;52.376;4.628;2023-04-10T22:27:41;100560.16;;;8.81;83.89
24752;BME280;27246;52.376;4.628;2023-04-10T22:32:43;100567.16;;;8.84;85.18
24752;BME280;27246;52.376;4.628;2023-04-10T22:37:44;100569.06;;;8.83;84.17
24752;BME280;27246;52.376;4.628;2023-04-10T22:42:46;100564.13;;;8.78;85.27
24752;BME280;27246;52.376;4.628;2023-04-10T22:47:48;100579.84;;;8.93;86.92
24752;BME280;27246;52.376;4.628;2023-04-10T22:52:50;100574.72;;;8.90;88.23
24752;BME280;27246;52.376;4.628;2023-04-10T22:57:52;100589.84;;;8.86;88.95
24752;BME280;27246;52.376;4.628;2023-04-10T23:02:53;100586.09;;;8.78;90.75
24752;BME280;27246;52.376;4.628;2023-04-10T23:07:56;100582.19;;;8.73;90.38
24752;BME280;27246;52.376;4.628;2023-04-10T23:12:58;100587.50;;;8.74;91.16
24752;BME280;27246;52.376;4.628;2023-04-10T23:18:00;100601.78;;;8.70;90.33
24752;BME280;27246;52.376;4.628;2023-04-10T23:23:02;100599.38;;;8.67;89.87
24752;BME280;27246;52.376;4.628;2023-04-10T23:28:04;100602.50;;;8.64;88.46
24752;BME280;27246;52.376;4.628;2023-04-10T23:33:06;100616.72;;;8.59;88.15
24752;BME280;27246;52.376;4.628;2023-04-10T23:38:07;100611.91;;;8.61;88.68
24752;BME280;27246;52.376;4.628;2023-04-10T23:43:09;100601.47;;;8.56;89.48
24752;BME280;27246;52.376;4.628;2023-04-10T23:48:11;100613.31;;;8.57;89.39
24752;BME280;27246;52.376;4.628;2023-04-10T23:53:12;100598.19;;;8.61;88.73
24752;BME280;27246;52.376;4.628;2023-04-10T23:58:15;100607.97;;;8.64;88.27
